Time;durP1;ratioP1;P1;durP2;ratioP2;P2;SDS_P1;SDS_P2;PMS_P1;PMS_P2;Temp;Humidity;BMP_temperature;BMP_pressure;BME280_temperature;BME280_humidity;BME280_pressure;Samples;Min_cycle;Max_cycle;Signal;HPM_P1;HPM_P2
2022/02/19 00:00:44;;;;;;;1.90;1.20;;;;;;;;;;1673575;29;21678;-57
2022/02/19 00:01:36;;;;;;;1.88;0.93;;;;;;;;;;1675996;29;21760;-57
2022/02/19 00:02:27;;;;;;;1.40;1.30;;;;;;;;;;1677536;29;21541;-57
2022/02/19 00:03:20;;;;;;;1.25;0.90;;;;;;;;;;1675402;29;22236;-56
2022/02/19 00:04:11;;;;;;;0.90;0.77;;;;;;;;;;1677480;29;21568;-57
2022/02/19 00:05:04;;;;;;;1.23;1.05;;;;;;;;;;1677563;29;21907;-57
2022/02/19 00:05:55;;;;;;;0.88;0.82;;;;;;;;;;1677428;29;21579;-57
2022/02/19 00:06:47;;;;;;;4.63;0.80;;;;;;;;;;1675836;29;21508;-57
2022/02/19 00:07:38;;;;;;;2.08;0.90;;;;;;;;;;1676435;29;21549;-57
2022/02/19 00:08:30;;;;;;;5.10;1.02;;;;;;;;;;1677469;29;21539;-57
2022/02/19 00:09:23;;;;;;;4.63;0.90;;;;;;;;;;1677597;29;21581;-57
2022/02/19 00:10:16;;;;;;;1.73;1.00;;;;;;;;;;1675783;29;22022;-57
2022/02/19 00:11:08;;;;;;;1.00;0.77;;;;;;;;;;1676499;29;21684;-57
2022/02/19 00:12:01;;;;;;;2.53;1.27;;;;;;;;;;1676795;29;21767;-57
2022/02/19 00:12:52;;;;;;;2.10;1.00;;;;;;;;;;1674937;29;21595;-57
2022/02/19 00:13:44;;;;;;;1.00;0.88;;;;;;;;;;1677566;29;22112;-57
2022/02/19 00:14:35;;;;;;;1.33;0.90;;;;;;;;;;1677436;29;21921;-57
2022/02/19 00:15:29;;;;;;;1.27;0.90;;;;;;;;;;1676746;29;22083;-57
2022/02/19 00:16:20;;;;;;;0.80;0.80;;;;;;;;;;1675596;29;21528;-57
2022/02/19 00:17:12;;;;;;;1.17;0.98;;;;;;;;;;1677451;29;21684;-56
2022/02/19 00:18:03;;;;;;;3.47;1.25;;;;;;;;;;1677459;29;21597;-57
2022/02/19 00:18:55;;;;;;;1.38;1.02;;;;;;;;;;1677601;29;21481;-57
2022/02/19 00:19:47;;;;;;;2.50;0.90;;;;;;;;;;1677401;29;22030;-57
2022/02/19 00:20:39;;;;;;;1.42;1.00;;;;;;;;;;1674074;29;21596;-57
2022/02/19 00:21:30;;;;;;;3.17;1.30;;;;;;;;;;1675990;29;21561;-57
2022/02/19 00:22:23;;;;;;;2.03;0.85;;;;;;;;;;1677491;29;21761;-55
2022/02/19 00:23:14;;;;;;;1.23;0.75;;;;;;;;;;1677501;29;21569;-57
2022/02/19 00:24:07;;;;;;;1.35;0.70;;;;;;;;;;1677449;29;21651;-57
2022/02/19 00:24:59;;;;;;;0.90;0.80;;;;;;;;;;1674959;29;21539;-57
2022/02/19 00:25:51;;;;;;;4.13;1.10;;;;;;;;;;1674637;29;21571;-57
2022/02/19 00:26:43;;;;;;;1.40;1.00;;;;;;;;;;1677179;29;21658;-57
2022/02/19 00:27:35;;;;;;;1.45;1.13;;;;;;;;;;1677522;29;22128;-57
2022/02/19 00:28:26;;;;;;;0.95;0.85;;;;;;;;;;1676728;29;21572;-57
2022/02/19 00:29:19;;;;;;;1.40;1.00;;;;;;;;;;1676331;29;21853;-57
2022/02/19 00:30:11;;;;;;;1.60;1.20;;;;;;;;;;1677631;29;21560;-56
2022/02/19 00:31:04;;;;;;;2.55;0.80;;;;;;;;;;1675398;29;21661;-57
2022/02/19 00:31:55;;;;;;;1.13;0.90;;;;;;;;;;1676111;29;21535;-57
2022/02/19 00:32:47;;;;;;;1.50;1.17;;;;;;;;;;1677523;29;21500;-57
2022/02/19 00:33:39;;;;;;;2.70;0.90;;;;;;;;;;1676383;29;22147;-57
2022/02/19 00:34:31;;;;;;;1.40;1.05;;;;;;;;;;1675982;29;22253;-57
2022/02/19 00:35:22;;;;;;;1.80;1.10;;;;;;;;;;1677446;29;21497;-57
2022/02/19 00:36:14;;;;;;;1.27;1.00;;;;;;;;;;1676492;29;21725;-57
2022/02/19 00:37:05;;;;;;;5.07;1.05;;;;;;;;;;1675265;29;21609;-57
2022/02/19 00:37:58;;;;;;;1.27;1.05;;;;;;;;;;1677624;29;21561;-57
2022/02/19 00:38:49;;;;;;;1.10;0.80;;;;;;;;;;1677283;29;21610;-57
2022/02/19 00:39:41;;;;;;;0.93;0.88;;;;;;;;;;1674752;29;21533;-56
2022/02/19 00:40:33;;;;;;;1.27;0.80;;;;;;;;;;1677558;29;21611;-57
2022/02/19 00:41:26;;;;;;;1.08;0.85;;;;;;;;;;1674628;29;21538;-57
2022/02/19 00:42:17;;;;;;;6.50;1.33;;;;;;;;;;1677447;29;21917;-57
2022/02/19 00:43:09;;;;;;;2.05;1.10;;;;;;;;;;1675802;29;21515;-57
2022/02/19 00:44:00;;;;;;;1.98;1.05;;;;;;;;;;1676280;29;21526;-57
2022/02/19 00:44:53;;;;;;;4.57;1.02;;;;;;;;;;1677282;29;21876;-57
2022/02/19 00:45:44;;;;;;;2.10;0.80;;;;;;;;;;1677572;29;21930;-57
2022/02/19 00:46:37;;;;;;;2.00;1.10;;;;;;;;;;1676583;29;21735;-57
2022/02/19 00:47:28;;;;;;;4.07;1.10;;;;;;;;;;1675936;29;21571;-57
2022/02/19 00:48:20;;;;;;;1.70;1.00;;;;;;;;;;1677473;29;21666;-57
2022/02/19 00:49:11;;;;;;;4.32;1.00;;;;;;;;;;1677377;29;21551;-57
2022/02/19 00:50:04;;;;;;;1.40;0.93;;;;;;;;;;1677506;29;21678;-57
2022/02/19 00:50:55;;;;;;;1.85;1.08;;;;;;;;;;1675318;29;21719;-57
2022/02/19 00:51:47;;;;;;;1.83;1.20;;;;;;;;;;1676229;29;22098;-57
2022/02/19 00:52:38;;;;;;;3.70;1.23;;;;;;;;;;1677300;29;22137;-57
2022/02/19 00:53:31;;;;;;;1.70;0.88;;;;;;;;;;1677588;29;21599;-57
2022/02/19 00:54:22;;;;;;;1.73;0.80;;;;;;;;;;1677424;29;21540;-57
2022/02/19 00:55:15;;;;;;;3.20;0.85;;;;;;;;;;1675730;29;21573;-56
2022/02/19 00:56:09;;;;;;;1.67;1.10;;;;;;;;;;1675418;29;21576;-57
2022/02/19 00:57:01;;;;;;;2.90;0.80;;;;;;;;;;1677393;29;21611;-57
2022/02/19 00:57:52;;;;;;;3.95;1.00;;;;;;;;;;1676545;29;21592;-57
2022/02/19 00:58:45;;;;;;;2.22;1.08;;;;;;;;;;1677357;29;21507;-57
2022/02/19 00:59:36;;;;;;;1.70;1.23;;;;;;;;;;1678406;29;21843;-57
2022/02/19 01:00:28;;;;;;;9.15;1.33;;;;;;;;;;1676779;29;21519;-57
2022/02/19 01:01:20;;;;;;;11.48;1.80;;;;;;;;;;1676438;29;21528;-57
2022/02/19 01:02:12;;;;;;;4.10;1.50;;;;;;;;;;1678390;29;21516;-57
2022/02/19 01:03:04;;;;;;;4.55;1.08;;;;;;;;;;1678352;29;21734;-57
2022/02/19 01:03:56;;;;;;;7.78;1.00;;;;;;;;;;1676876;29;21660;-57
2022/02/19 01:04:47;;;;;;;2.75;0.80;;;;;;;;;;1677372;29;21575;-56
2022/02/19 01:05:40;;;;;;;2.47;0.80;;;;;;;;;;1678405;29;21604;-57
2022/02/19 01:06:32;;;;;;;2.28;1.15;;;;;;;;;;1677000;29;21557;-57
2022/02/19 01:07:24;;;;;;;4.30;0.80;;;;;;;;;;1670265;29;21685;-57
2022/02/19 01:08:15;;;;;;;5.20;1.45;;;;;;;;;;1665255;29;21548;-57
2022/02/19 01:09:07;;;;;;;2.95;1.05;;;;;;;;;;1674151;29;21526;-56
2022/02/19 01:09:58;;;;;;;3.47;1.27;;;;;;;;;;1677252;29;21522;-57
2022/02/19 01:10:51;;;;;;;1.20;0.85;;;;;;;;;;1677003;29;22106;-57
2022/02/19 01:11:43;;;;;;;1.73;1.00;;;;;;;;;;1675458;29;21899;-57
2022/02/19 01:12:36;;;;;;;1.42;0.80;;;;;;;;;;1676568;29;22148;-57
2022/02/19 01:13:27;;;;;;;1.40;0.88;;;;;;;;;;1678512;29;21564;-56
2022/02/19 01:14:19;;;;;;;1.88;0.85;;;;;;;;;;1678306;29;21497;-57
2022/02/19 01:15:11;;;;;;;2.55;0.90;;;;;;;;;;1678492;29;21589;-57
2022/02/19 01:16:04;;;;;;;1.63;0.88;;;;;;;;;;1676475;29;21499;-57
2022/02/19 01:16:55;;;;;;;1.75;0.70;;;;;;;;;;1678453;29;21518;-57
2022/02/19 01:17:47;;;;;;;2.55;1.30;;;;;;;;;;1678464;29;21525;-57
2022/02/19 01:18:38;;;;;;;5.45;1.30;;;;;;;;;;1677041;29;21561;-57
2022/02/19 01:19:30;;;;;;;1.10;0.93;;;;;;;;;;1677394;29;21561;-56
2022/02/19 01:20:23;;;;;;;3.50;1.08;;;;;;;;;;1678369;29;21599;-56
2022/02/19 01:21:17;;;;;;;1.92;0.80;;;;;;;;;;1675814;29;22311;-57
2022/02/19 01:22:09;;;;;;;2.38;0.90;;;;;;;;;;1674466;29;21596;-57
2022/02/19 01:23:01;;;;;;;1.60;0.85;;;;;;;;;;1677523;29;22056;-57
2022/02/19 01:23:53;;;;;;;4.57;1.02;;;;;;;;;;1678254;29;21557;-57
2022/02/19 01:24:44;;;;;;;3.25;1.20;;;;;;;;;;1677565;29;21623;-57
2022/02/19 01:25:36;;;;;;;3.95;1.05;;;;;;;;;;1677200;29;21588;-57
2022/02/19 01:26:28;;;;;;;2.05;0.98;;;;;;;;;;1671149;29;21796;-57
2022/02/19 01:27:21;;;;;;;1.75;1.00;;;;;;;;;;1670587;29;21659;-57
2022/02/19 01:28:13;;;;;;;1.10;0.98;;;;;;;;;;1675869;29;21567;-57
2022/02/19 01:29:06;;;;;;;1.45;0.85;;;;;;;;;;1678332;29;21708;-57
2022/02/19 01:29:58;;;;;;;1.13;1.00;;;;;;;;;;1672701;29;22117;-57
2022/02/19 01:30:50;;;;;;;1.67;1.00;;;;;;;;;;1676450;29;21566;-57
2022/02/19 01:31:41;;;;;;;1.35;0.88;;;;;;;;;;1676092;29;21541;-57
2022/02/19 01:32:34;;;;;;;4.53;1.00;;;;;;;;;;1677746;29;21545;-57
2022/02/19 01:33:25;;;;;;;1.27;1.15;;;;;;;;;;1677191;29;21504;-57
2022/02/19 01:34:17;;;;;;;1.33;0.70;;;;;;;;;;1678427;29;21538;-57
2022/02/19 01:35:09;;;;;;;1.17;0.90;;;;;;;;;;1676174;29;21557;-57
2022/02/19 01:36:01;;;;;;;2.53;1.00;;;;;;;;;;1676595;29;21533;-57
2022/02/19 01:36:52;;;;;;;1.20;0.85;;;;;;;;;;1678451;29;21525;-57
2022/02/19 01:37:44;;;;;;;5.00;1.00;;;;;;;;;;1677775;29;21559;-57
2022/02/19 01:38:36;;;;;;;2.72;1.08;;;;;;;;;;1676541;29;21545;-57
2022/02/19 01:39:29;;;;;;;1.75;0.90;;;;;;;;;;1678227;29;21565;-57
2022/02/19 01:40:20;;;;;;;2.05;0.98;;;;;;;;;;1677920;29;21493;-57
2022/02/19 01:41:13;;;;;;;4.55;1.15;;;;;;;;;;1675817;29;21985;-57
2022/02/19 01:42:05;;;;;;;1.73;0.77;;;;;;;;;;1678074;29;21969;-57
2022/02/19 01:42:58;;;;;;;0.98;0.70;;;;;;;;;;1678024;29;21770;-57
2022/02/19 01:43:50;;;;;;;3.05;0.77;;;;;;;;;;1676302;29;21598;-57
2022/02/19 01:44:46;;;;;;;6.70;1.00;;;;;;;;;;1678277;29;21560;-57
2022/02/19 01:45:38;;;;;;;2.15;1.27;;;;;;;;;;1678285;29;22089;-57
2022/02/19 01:46:30;;;;;;;1.67;0.63;;;;;;;;;;1678349;29;22124;-57
2022/02/19 01:47:21;;;;;;;1.70;0.85;;;;;;;;;;1676558;29;22179;-57
2022/02/19 01:48:14;;;;;;;1.58;0.95;;;;;;;;;;1677392;29;22456;-57
2022/02/19 01:49:07;;;;;;;3.78;1.20;;;;;;;;;;1678118;29;21519;-57
2022/02/19 01:49:58;;;;;;;3.47;1.13;;;;;;;;;;1676631;29;21627;-57
2022/02/19 01:50:50;;;;;;;1.85;0.90;;;;;;;;;;1676267;29;21944;-57
2022/02/19 01:51:42;;;;;;;1.30;1.08;;;;;;;;;;1676676;29;21646;-57
2022/02/19 01:52:34;;;;;;;1.85;0.98;;;;;;;;;;1671811;29;21644;-57
2022/02/19 01:53:26;;;;;;;3.78;1.20;;;;;;;;;;1675388;29;21548;-57
2022/02/19 01:54:18;;;;;;;2.47;1.00;;;;;;;;;;1678214;29;21890;-56
2022/02/19 01:55:10;;;;;;;2.00;1.13;;;;;;;;;;1678154;29;21550;-57
2022/02/19 01:56:05;;;;;;;10.05;1.00;;;;;;;;;;1675461;29;21902;-57
2022/02/19 01:56:58;;;;;;;9.07;2.38;;;;;;;;;;1678178;29;22013;-57
2022/02/19 01:57:51;;;;;;;1.50;1.05;;;;;;;;;;1678151;29;22098;-57
2022/02/19 01:58:43;;;;;;;5.32;1.55;;;;;;;;;;1675430;29;21575;-57
2022/02/19 01:59:37;;;;;;;1.60;0.90;;;;;;;;;;1678104;29;21674;-56
2022/02/19 02:00:28;;;;;;;4.28;1.13;;;;;;;;;;1678007;29;22085;-57
2022/02/19 02:01:20;;;;;;;3.15;1.13;;;;;;;;;;1674642;29;21553;-57
2022/02/19 02:02:11;;;;;;;2.85;1.27;;;;;;;;;;1675246;29;21863;-56
2022/02/19 02:03:03;;;;;;;3.95;1.05;;;;;;;;;;1678179;29;21652;-57
2022/02/19 02:03:55;;;;;;;4.05;1.20;;;;;;;;;;1676118;29;21623;-57
2022/02/19 02:04:46;;;;;;;2.47;1.00;;;;;;;;;;1678062;29;21519;-57
2022/02/19 02:05:38;;;;;;;1.63;1.05;;;;;;;;;;1678166;29;22088;-57
2022/02/19 02:06:30;;;;;;;1.98;1.35;;;;;;;;;;1677335;29;21879;-57
2022/02/19 02:07:23;;;;;;;7.88;1.15;;;;;;;;;;1677265;29;21615;-57
2022/02/19 02:08:14;;;;;;;6.22;1.08;;;;;;;;;;1678153;29;21541;-56
2022/02/19 02:09:06;;;;;;;20.73;1.52;;;;;;;;;;1676103;29;21624;-56
2022/02/19 02:09:58;;;;;;;14.05;1.80;;;;;;;;;;1677049;29;21537;-57
2022/02/19 02:10:51;;;;;;;13.75;1.40;;;;;;;;;;1677546;29;21581;-56
2022/02/19 02:11:42;;;;;;;11.63;2.03;;;;;;;;;;1675992;29;22097;-57
2022/02/19 02:12:35;;;;;;;6.88;1.08;;;;;;;;;;1678279;29;21543;-56
2022/02/19 02:13:26;;;;;;;6.72;1.70;;;;;;;;;;1676591;29;21727;-57
2022/02/19 02:14:20;;;;;;;15.52;1.48;;;;;;;;;;1676916;29;22221;-57
2022/02/19 02:15:27;;;;;;;11.05;1.85;;;;;;;;;;1678239;29;21636;-57
2022/02/19 02:16:19;;;;;;;6.07;1.23;;;;;;;;;;1676441;29;21499;-56
2022/02/19 02:17:12;;;;;;;8.30;1.48;;;;;;;;;;1677089;29;21622;-57
2022/02/19 02:18:04;;;;;;;5.40;1.33;;;;;;;;;;1678140;29;21663;-57
2022/02/19 02:18:55;;;;;;;5.05;1.45;;;;;;;;;;1676638;29;22120;-56
2022/02/19 02:19:48;;;;;;;10.88;1.13;;;;;;;;;;1677116;29;21645;-57
2022/02/19 02:20:39;;;;;;;5.78;0.80;;;;;;;;;;1677107;29;22086;-57
2022/02/19 02:21:33;;;;;;;2.55;1.10;;;;;;;;;;1676163;29;21723;-57
2022/02/19 02:22:24;;;;;;;4.45;1.30;;;;;;;;;;1676413;29;22163;-56
2022/02/19 02:23:16;;;;;;;4.82;1.10;;;;;;;;;;1670014;29;21644;-57
2022/02/19 02:24:08;;;;;;;7.55;1.08;;;;;;;;;;1671195;29;21610;-57
2022/02/19 02:25:00;;;;;;;3.05;1.35;;;;;;;;;;1675813;29;21955;-56
2022/02/19 02:25:53;;;;;;;3.15;1.15;;;;;;;;;;1676443;29;21497;-57
2022/02/19 02:26:46;;;;;;;13.93;1.40;;;;;;;;;;1677381;29;21599;-56
2022/02/19 02:27:37;;;;;;;9.82;1.25;;;;;;;;;;1677858;29;21845;-56
2022/02/19 02:28:29;;;;;;;5.05;1.25;;;;;;;;;;1678147;29;21568;-56
2022/02/19 02:29:20;;;;;;;8.27;1.23;;;;;;;;;;1678136;29;21580;-57
2022/02/19 02:30:13;;;;;;;4.95;1.33;;;;;;;;;;1676730;29;21549;-56
2022/02/19 02:31:05;;;;;;;3.55;1.00;;;;;;;;;;1677116;29;22083;-57
2022/02/19 02:31:57;;;;;;;2.85;0.95;;;;;;;;;;1676897;29;21492;-57
2022/02/19 02:32:48;;;;;;;3.75;1.23;;;;;;;;;;1676411;29;21548;-56
2022/02/19 02:33:42;;;;;;;8.50;0.80;;;;;;;;;;1677401;29;21609;-56
2022/02/19 02:34:33;;;;;;;1.42;1.00;;;;;;;;;;1678016;29;21524;-56
2022/02/19 02:35:26;;;;;;;4.15;1.10;;;;;;;;;;1677484;29;21575;-56
2022/02/19 02:36:18;;;;;;;8.00;1.27;;;;;;;;;;1676790;29;21580;-56
2022/02/19 02:37:11;;;;;;;5.18;1.00;;;;;;;;;;1678027;29;21872;-57
2022/02/19 02:38:03;;;;;;;3.33;1.17;;;;;;;;;;1678007;29;21553;-57
2022/02/19 02:38:57;;;;;;;1.25;0.70;;;;;;;;;;1676135;29;21612;-57
2022/02/19 02:39:49;;;;;;;4.47;1.35;;;;;;;;;;1678047;29;21557;-57
2022/02/19 02:40:41;;;;;;;2.95;1.05;;;;;;;;;;1677049;29;21577;-57
2022/02/19 02:41:32;;;;;;;2.45;1.40;;;;;;;;;;1675429;29;22092;-57
2022/02/19 02:42:24;;;;;;;2.10;1.00;;;;;;;;;;1677933;29;21590;-57
2022/02/19 02:43:15;;;;;;;2.90;0.80;;;;;;;;;;1677920;29;21604;-57
2022/02/19 02:44:08;;;;;;;5.10;0.90;;;;;;;;;;1678092;29;22004;-57
2022/02/19 02:44:59;;;;;;;2.13;0.80;;;;;;;;;;1678129;29;21522;-57
2022/02/19 02:45:51;;;;;;;2.42;1.10;;;;;;;;;;1676573;29;21506;-57
2022/02/19 02:46:42;;;;;;;2.25;0.65;;;;;;;;;;1676912;29;21533;-57
2022/02/19 02:47:36;;;;;;;7.18;1.08;;;;;;;;;;1677906;29;21703;-56
2022/02/19 02:48:28;;;;;;;0.77;0.77;;;;;;;;;;1678096;29;21508;-57
2022/02/19 02:49:19;;;;;;;1.02;0.80;;;;;;;;;;1678139;29;21586;-57
2022/02/19 02:50:12;;;;;;;4.20;1.20;;;;;;;;;;1676407;29;21557;-56
2022/02/19 02:51:05;;;;;;;1.88;0.70;;;;;;;;;;1676579;29;21583;-56
2022/02/19 02:51:57;;;;;;;2.47;0.73;;;;;;;;;;1676785;29;21545;-57
2022/02/19 02:52:49;;;;;;;3.83;0.77;;;;;;;;;;1676474;29;21583;-57
2022/02/19 02:53:42;;;;;;;2.65;0.90;;;;;;;;;;1677018;29;21538;-57
2022/02/19 02:54:34;;;;;;;1.70;0.85;;;;;;;;;;1677971;29;21564;-57
2022/02/19 02:55:26;;;;;;;10.85;1.20;;;;;;;;;;1677593;29;21519;-57
2022/02/19 02:56:17;;;;;;;4.10;1.42;;;;;;;;;;1675777;29;21509;-57
2022/02/19 02:57:11;;;;;;;4.35;0.80;;;;;;;;;;1677849;29;21594;-56
2022/02/19 02:58:02;;;;;;;2.35;0.95;;;;;;;;;;1677862;29;21552;-56
2022/02/19 02:58:54;;;;;;;5.45;0.90;;;;;;;;;;1675261;29;22037;-57
2022/02/19 02:59:45;;;;;;;2.03;0.80;;;;;;;;;;1677892;29;21541;-56
2022/02/19 03:00:37;;;;;;;4.43;1.33;;;;;;;;;;1677272;29;21547;-57
2022/02/19 03:01:28;;;;;;;4.18;1.00;;;;;;;;;;1675685;29;22100;-57
2022/02/19 03:02:21;;;;;;;1.50;1.00;;;;;;;;;;1676877;29;21619;-57
2022/02/19 03:03:12;;;;;;;5.72;0.93;;;;;;;;;;1677924;29;21518;-57
2022/02/19 03:04:04;;;;;;;4.05;0.80;;;;;;;;;;1676457;29;22132;-57
2022/02/19 03:04:56;;;;;;;2.58;0.93;;;;;;;;;;1676794;29;21559;-57
2022/02/19 03:05:48;;;;;;;4.18;1.10;;;;;;;;;;1677673;29;21586;-57
2022/02/19 03:06:40;;;;;;;4.00;0.88;;;;;;;;;;1676494;29;21543;-57
2022/02/19 03:07:32;;;;;;;4.70;1.20;;;;;;;;;;1676680;29;21585;-56
2022/02/19 03:08:24;;;;;;;4.53;1.05;;;;;;;;;;1677723;29;21578;-56
2022/02/19 03:09:17;;;;;;;1.70;0.98;;;;;;;;;;1677990;29;21879;-57
2022/02/19 03:10:09;;;;;;;2.67;1.08;;;;;;;;;;1677916;29;22082;-56
2022/02/19 03:11:01;;;;;;;2.15;0.90;;;;;;;;;;1675629;29;21608;-57
2022/02/19 03:11:52;;;;;;;6.75;1.00;;;;;;;;;;1676536;29;21563;-56
2022/02/19 03:12:45;;;;;;;8.88;1.08;;;;;;;;;;1677781;29;22122;-57
2022/02/19 03:13:36;;;;;;;5.80;0.90;;;;;;;;;;1677773;29;22067;-57
2022/02/19 03:14:28;;;;;;;5.00;0.77;;;;;;;;;;1677873;29;21554;-57
2022/02/19 03:15:21;;;;;;;1.52;0.77;;;;;;;;;;1677890;29;21548;-56
2022/02/19 03:16:13;;;;;;;2.35;0.70;;;;;;;;;;1675346;29;21499;-57
2022/02/19 03:17:04;;;;;;;4.68;1.13;;;;;;;;;;1677857;29;21593;-56
2022/02/19 03:17:57;;;;;;;4.15;1.10;;;;;;;;;;1670917;29;21516;-57
2022/02/19 03:18:48;;;;;;;4.63;0.90;;;;;;;;;;1668917;29;21894;-56
2022/02/19 03:19:41;;;;;;;2.58;0.90;;;;;;;;;;1675282;29;21695;-56
2022/02/19 03:20:33;;;;;;;1.80;1.00;;;;;;;;;;1677292;29;22210;-57
2022/02/19 03:21:25;;;;;;;1.65;0.80;;;;;;;;;;1674694;29;21530;-56
2022/02/19 03:22:17;;;;;;;4.72;1.10;;;;;;;;;;1675931;29;21616;-57
2022/02/19 03:23:09;;;;;;;4.22;0.80;;;;;;;;;;1677815;29;21542;-56
2022/02/19 03:24:01;;;;;;;13.02;1.30;;;;;;;;;;1677633;29;22119;-56
2022/02/19 03:24:53;;;;;;;2.40;0.88;;;;;;;;;;1677819;29;21570;-57
2022/02/19 03:25:45;;;;;;;1.50;0.93;;;;;;;;;;1677855;29;21634;-56
2022/02/19 03:26:37;;;;;;;3.67;1.25;;;;;;;;;;1674996;29;21720;-57
2022/02/19 03:27:28;;;;;;;1.15;0.70;;;;;;;;;;1677692;29;21606;-57
2022/02/19 03:28:20;;;;;;;2.65;0.90;;;;;;;;;;1677715;29;21943;-56
2022/02/19 03:29:11;;;;;;;1.73;1.15;;;;;;;;;;1677903;29;21521;-57
2022/02/19 03:30:04;;;;;;;5.35;1.02;;;;;;;;;;1677871;29;21707;-57
2022/02/19 03:30:56;;;;;;;1.48;0.85;;;;;;;;;;1675312;29;21667;-56
2022/02/19 03:31:48;;;;;;;1.73;0.95;;;;;;;;;;1676457;29;21695;-57
2022/02/19 03:32:40;;;;;;;0.88;0.80;;;;;;;;;;1677800;29;21616;-56
2022/02/19 03:33:32;;;;;;;2.33;0.90;;;;;;;;;;1675835;29;21654;-57
2022/02/19 03:34:24;;;;;;;9.63;0.88;;;;;;;;;;1677797;29;21525;-56
2022/02/19 03:35:16;;;;;;;1.77;1.10;;;;;;;;;;1677633;29;21576;-56
2022/02/19 03:36:07;;;;;;;2.85;0.90;;;;;;;;;;1676660;29;21577;-56
2022/02/19 03:36:59;;;;;;;2.08;1.13;;;;;;;;;;1675846;29;21633;-57
2022/02/19 03:37:50;;;;;;;7.47;1.50;;;;;;;;;;1677734;29;21595;-57
2022/02/19 03:38:43;;;;;;;2.95;1.00;;;;;;;;;;1677499;29;21635;-56
2022/02/19 03:39:35;;;;;;;3.90;0.85;;;;;;;;;;1675515;29;21613;-57
2022/02/19 03:40:27;;;;;;;3.40;1.10;;;;;;;;;;1677804;29;21508;-57
2022/02/19 03:41:19;;;;;;;2.58;0.82;;;;;;;;;;1674803;29;21562;-57
2022/02/19 03:42:11;;;;;;;1.65;0.93;;;;;;;;;;1674197;29;22211;-57
2022/02/19 03:43:03;;;;;;;3.30;1.10;;;;;;;;;;1676641;29;21529;-57
2022/02/19 03:43:58;;;;;;;5.43;1.17;;;;;;;;;;1677750;29;22194;-57
2022/02/19 03:44:49;;;;;;;1.77;0.90;;;;;;;;;;1677745;29;21613;-57
2022/02/19 03:45:43;;;;;;;1.63;1.20;;;;;;;;;;1676131;29;21990;-57
2022/02/19 03:46:36;;;;;;;5.35;1.00;;;;;;;;;;1676438;29;21578;-56
2022/02/19 03:47:28;;;;;;;3.42;1.00;;;;;;;;;;1677529;29;22034;-57
2022/02/19 03:48:19;;;;;;;3.55;1.10;;;;;;;;;;1676085;29;21762;-57
2022/02/19 03:49:11;;;;;;;5.35;1.30;;;;;;;;;;1676495;29;22014;-56
2022/02/19 03:50:03;;;;;;;5.47;1.20;;;;;;;;;;1677667;29;21533;-56
2022/02/19 03:50:55;;;;;;;6.70;1.10;;;;;;;;;;1675337;29;21814;-57
2022/02/19 03:51:47;;;;;;;5.25;1.45;;;;;;;;;;1676299;29;21991;-56
2022/02/19 03:52:39;;;;;;;1.65;1.10;;;;;;;;;;1677631;29;21528;-57
2022/02/19 03:53:30;;;;;;;2.33;1.10;;;;;;;;;;1675608;29;22136;-57
2022/02/19 03:54:22;;;;;;;1.85;1.20;;;;;;;;;;1676075;29;21507;-57
2022/02/19 03:55:15;;;;;;;1.52;1.23;;;;;;;;;;1671396;29;22058;-57
2022/02/19 03:56:07;;;;;;;3.65;1.50;;;;;;;;;;1677002;29;21543;-56
2022/02/19 03:56:58;;;;;;;2.55;1.20;;;;;;;;;;1677680;29;21594;-56
2022/02/19 03:57:50;;;;;;;2.13;1.50;;;;;;;;;;1677726;29;21554;-57
2022/02/19 03:58:41;;;;;;;3.15;1.35;;;;;;;;;;1674946;29;21587;-57
2022/02/19 03:59:33;;;;;;;1.85;1.10;;;;;;;;;;1677650;29;21571;-57
2022/02/19 04:00:25;;;;;;;4.22;0.95;;;;;;;;;;1677537;29;21588;-56
2022/02/19 04:01:17;;;;;;;1.85;1.25;;;;;;;;;;1674451;29;21523;-56
2022/02/19 04:02:08;;;;;;;2.22;1.45;;;;;;;;;;1674634;29;21645;-57
2022/02/19 04:03:01;;;;;;;2.40;1.40;;;;;;;;;;1677588;29;21510;-56
2022/02/19 04:03:52;;;;;;;3.42;1.10;;;;;;;;;;1676985;29;22091;-57
2022/02/19 04:04:44;;;;;;;1.30;1.10;;;;;;;;;;1675938;29;21592;-57
2022/02/19 04:05:35;;;;;;;2.17;1.38;;;;;;;;;;1677761;29;22113;-57
2022/02/19 04:06:27;;;;;;;2.60;1.30;;;;;;;;;;1677477;29;21541;-57
2022/02/19 04:07:18;;;;;;;2.30;1.48;;;;;;;;;;1677620;29;21557;-56
2022/02/19 04:08:11;;;;;;;1.55;1.20;;;;;;;;;;1677084;29;21655;-57
2022/02/19 04:09:03;;;;;;;1.65;1.45;;;;;;;;;;1675349;29;21521;-57
2022/02/19 04:09:55;;;;;;;5.00;1.42;;;;;;;;;;1677576;29;22099;-56
2022/02/19 04:10:47;;;;;;;1.75;1.23;;;;;;;;;;1676400;29;21520;-57
2022/02/19 04:11:41;;;;;;;2.05;1.38;;;;;;;;;;1674899;29;21542;-56
2022/02/19 04:12:33;;;;;;;5.07;1.40;;;;;;;;;;1676255;29;21571;-57
2022/02/19 04:13:25;;;;;;;5.00;1.10;;;;;;;;;;1671395;29;21486;-56
2022/02/19 04:14:16;;;;;;;2.17;1.30;;;;;;;;;;1676214;29;22069;-57
2022/02/19 04:15:10;;;;;;;1.40;1.30;;;;;;;;;;1677608;29;21958;-56
2022/02/19 04:16:02;;;;;;;4.63;1.20;;;;;;;;;;1674699;29;21512;-56
2022/02/19 04:16:54;;;;;;;1.35;1.13;;;;;;;;;;1677410;29;21555;-57
2022/02/19 04:17:45;;;;;;;1.45;1.35;;;;;;;;;;1677507;29;22064;-57
2022/02/19 04:18:37;;;;;;;2.83;1.48;;;;;;;;;;1668507;29;21612;-56
2022/02/19 04:19:29;;;;;;;4.43;1.23;;;;;;;;;;1664425;29;21556;-57
2022/02/19 04:20:21;;;;;;;1.40;1.30;;;;;;;;;;1670724;29;22144;-57
2022/02/19 04:21:12;;;;;;;1.58;1.38;;;;;;;;;;1675059;29;21648;-57
2022/02/19 04:22:05;;;;;;;3.38;1.75;;;;;;;;;;1676862;29;21953;-56
2022/02/19 04:22:56;;;;;;;2.80;1.30;;;;;;;;;;1677393;29;21965;-57
2022/02/19 04:23:48;;;;;;;1.85;1.25;;;;;;;;;;1676940;29;21547;-57
2022/02/19 04:24:39;;;;;;;2.83;1.40;;;;;;;;;;1676407;29;21584;-57
2022/02/19 04:25:32;;;;;;;1.88;1.40;;;;;;;;;;1677440;29;22025;-57
2022/02/19 04:26:24;;;;;;;1.02;0.98;;;;;;;;;;1677547;29;22113;-57
2022/02/19 04:27:17;;;;;;;32.50;2.15;;;;;;;;;;1676196;29;21585;-57
2022/02/19 04:28:09;;;;;;;10.93;2.20;;;;;;;;;;1676105;29;22154;-57
2022/02/19 04:29:02;;;;;;;2.90;1.75;;;;;;;;;;1671183;29;21523;-57
2022/02/19 04:29:53;;;;;;;5.50;1.50;;;;;;;;;;1677050;29;22143;-57
2022/02/19 04:30:45;;;;;;;3.58;1.23;;;;;;;;;;1677002;29;21696;-57
2022/02/19 04:31:38;;;;;;;8.18;0.98;;;;;;;;;;1674477;29;22076;-57
2022/02/19 04:32:30;;;;;;;2.80;1.30;;;;;;;;;;1676141;29;22044;-57
2022/02/19 04:33:22;;;;;;;2.45;1.42;;;;;;;;;;1677421;29;21546;-57
2022/02/19 04:34:14;;;;;;;2.05;1.23;;;;;;;;;;1671674;29;21621;-57
2022/02/19 04:35:06;;;;;;;3.50;1.38;;;;;;;;;;1676385;29;22031;-56
2022/02/19 04:35:58;;;;;;;2.60;1.15;;;;;;;;;;1677438;29;21857;-57
2022/02/19 04:36:52;;;;;;;3.47;1.58;;;;;;;;;;1669498;29;21530;-57
2022/02/19 04:37:43;;;;;;;4.75;1.30;;;;;;;;;;1668972;29;21567;-57
2022/02/19 04:38:35;;;;;;;2.45;1.52;;;;;;;;;;1671148;29;22040;-57
2022/02/19 04:39:26;;;;;;;1.48;1.30;;;;;;;;;;1671019;29;22172;-57
2022/02/19 04:40:19;;;;;;;1.60;1.15;;;;;;;;;;1671164;29;21864;-57
2022/02/19 04:41:10;;;;;;;4.95;1.83;;;;;;;;;;1668906;29;22100;-57
2022/02/19 04:42:04;;;;;;;3.38;1.30;;;;;;;;;;1669161;29;21562;-57
2022/02/19 04:42:55;;;;;;;3.63;1.20;;;;;;;;;;1671082;29;21923;-57
2022/02/19 04:43:47;;;;;;;2.28;1.27;;;;;;;;;;1670982;29;21649;-57
2022/02/19 04:44:40;;;;;;;1.23;1.00;;;;;;;;;;1671124;29;21532;-57
2022/02/19 04:45:32;;;;;;;4.10;1.65;;;;;;;;;;1671038;29;21589;-57
2022/02/19 04:46:24;;;;;;;1.88;1.05;;;;;;;;;;1669314;29;21557;-57
2022/02/19 04:47:16;;;;;;;1.35;1.00;;;;;;;;;;1670981;29;22050;-57
2022/02/19 04:48:07;;;;;;;3.05;1.05;;;;;;;;;;1671000;29;22279;-56
2022/02/19 04:48:59;;;;;;;1.38;1.00;;;;;;;;;;1668262;29;21676;-57
2022/02/19 04:49:50;;;;;;;1.35;1.15;;;;;;;;;;1668207;29;21884;-57
2022/02/19 04:50:42;;;;;;;4.15;1.40;;;;;;;;;;1670115;29;21568;-57
2022/02/19 04:51:34;;;;;;;3.38;1.17;;;;;;;;;;1668407;29;21591;-56
2022/02/19 04:52:26;;;;;;;2.47;1.20;;;;;;;;;;1670430;29;21975;-57
2022/02/19 04:53:17;;;;;;;2.58;1.30;;;;;;;;;;1670975;29;21560;-56
2022/02/19 04:54:09;;;;;;;2.53;1.27;;;;;;;;;;1669552;29;21699;-57
2022/02/19 04:55:01;;;;;;;1.58;1.20;;;;;;;;;;1669926;29;21854;-57
2022/02/19 04:55:53;;;;;;;1.60;1.17;;;;;;;;;;1670892;29;21587;-57
2022/02/19 04:56:44;;;;;;;4.20;1.58;;;;;;;;;;1670998;29;21631;-57
2022/02/19 04:57:43;;;;;;;1.33;1.17;;;;;;;;;;1669059;29;21541;-56
2022/02/19 04:58:34;;;;;;;2.13;1.17;;;;;;;;;;1671032;29;21540;-57
2022/02/19 04:59:26;;;;;;;1.17;1.02;;;;;;;;;;1671008;29;21514;-56
2022/02/19 05:00:19;;;;;;;1.88;1.48;;;;;;;;;;1670975;29;21500;-56
2022/02/19 05:01:11;;;;;;;2.38;1.40;;;;;;;;;;1668326;29;22263;-57
2022/02/19 05:02:03;;;;;;;1.50;1.20;;;;;;;;;;1670502;29;21585;-57
2022/02/19 05:02:55;;;;;;;1.40;1.15;;;;;;;;;;1670804;29;21570;-57
2022/02/19 05:03:47;;;;;;;1.52;1.20;;;;;;;;;;1668312;29;22145;-57
2022/02/19 05:04:39;;;;;;;1.83;1.02;;;;;;;;;;1668011;29;21508;-56
2022/02/19 05:05:30;;;;;;;1.95;1.38;;;;;;;;;;1670974;29;21655;-57
2022/02/19 05:06:22;;;;;;;2.45;1.05;;;;;;;;;;1669358;29;21615;-56
2022/02/19 05:07:14;;;;;;;2.05;1.48;;;;;;;;;;1669961;29;21536;-56
2022/02/19 05:08:06;;;;;;;2.13;1.23;;;;;;;;;;1670874;29;21572;-57
2022/02/19 05:08:57;;;;;;;1.70;1.30;;;;;;;;;;1669336;29;21572;-56
2022/02/19 05:09:49;;;;;;;1.80;1.35;;;;;;;;;;1669804;29;21896;-56
2022/02/19 05:10:40;;;;;;;1.23;1.13;;;;;;;;;;1670044;29;21556;-56
2022/02/19 05:11:33;;;;;;;1.30;1.20;;;;;;;;;;1667486;29;21617;-57
2022/02/19 05:12:24;;;;;;;1.63;1.30;;;;;;;;;;1670718;29;21557;-56